sensor_id;sensor_type;location;lat;lon;timestamp;pressure;altitude;pressure_sealevel;temperature;humidity
47530;BME280;33272;51.922;7.730;2023-04-07T00:00:42;144482.38;;;7.99;100.00
47530;BME280;33272;51.922;7.730;2023-04-07T00:03:11;144482.38;;;7.99;100.00
47530;BME280;33272;51.922;7.730;2023-04-07T00:05:37;144482.38;;;7.99;100.00
47530;BME280;33272;51.922;7.730;2023-04-07T00:08:05;144478.59;;;7.98;100.00
47530;BME280;33272;51.922;7.730;2023-04-07T00:10:32;144474.78;;;7.96;100.00
47530;BME280;33272;51.922;7.730;2023-04-07T00:12:59;144469.72;;;7.94;100.00
47530;BME280;33272;51.922;7.730;2023-04-07T00:15:26;144472.28;;;7.95;100.00
47530;BME280;33272;51.922;7.730;2023-04-07T00:17:54;144467.19;;;7.93;100.00
47530;BME280;33272;51.922;7.730;2023-04-07T00:20:22;144458.34;;;7.89;100.00
47530;BME280;33272;51.922;7.730;2023-04-07T00:22:49;144457.09;;;7.89;100.00
47530;BME280;33272;51.922;7.730;2023-04-07T00:25:16;144449.50;;;7.86;100.00
47530;BME280;33272;51.922;7.730;2023-04-07T00:27:44;144449.50;;;7.86;100.00
47530;BME280;33272;51.922;7.730;2023-04-07T00:30:12;144436.84;;;7.81;100.00
47530;BME280;33272;51.922;7.730;2023-04-07T00:32:40;144436.84;;;7.81;100.00
47530;BME280;33272;51.922;7.730;2023-04-07T00:35:08;144433.06;;;7.79;100.00
47530;BME280;33272;51.922;7.730;2023-04-07T00:37:36;144439.41;;;7.82;100.00
47530;BME280;33272;51.922;7.730;2023-04-07T00:40:05;144439.41;;;7.82;100.00
47530;BME280;33272;51.922;7.730;2023-04-07T00:42:32;144439.41;;;7.82;100.00
47530;BME280;33272;51.922;7.730;2023-04-07T00:45:00;144433.06;;;7.79;100.00
47530;BME280;33272;51.922;7.730;2023-04-07T00:47:27;144435.59;;;7.80;100.00
47530;BME280;33272;51.922;7.730;2023-04-07T00:49:54;144431.81;;;7.79;100.00
47530;BME280;33272;51.922;7.730;2023-04-07T00:52:21;144429.25;;;7.78;100.00
47530;BME280;33272;51.922;7.730;2023-04-07T00:54:55;144434.31;;;7.80;100.00
47530;BME280;33272;51.922;7.730;2023-04-07T00:57:22;144433.06;;;7.79;100.00
47530;BME280;33272;51.922;7.730;2023-04-07T00:59:50;144433.06;;;7.79;100.00
47530;BME280;33272;51.922;7.730;2023-04-07T01:02:22;144434.31;;;7.80;100.00
47530;BME280;33272;51.922;7.730;2023-04-07T01:04:59;144433.06;;;7.79;100.00
47530;BME280;33272;51.922;7.730;2023-04-07T01:07:37;144436.84;;;7.81;100.00
47530;BME280;33272;51.922;7.730;2023-04-07T01:10:11;144434.31;;;7.80;100.00
47530;BME280;33272;51.922;7.730;2023-04-07T01:12:51;144434.31;;;7.80;100.00
47530;BME280;33272;51.922;7.730;2023-04-07T01:15:22;144441.91;;;7.83;100.00
47530;BME280;33272;51.922;7.730;2023-04-07T01:17:57;144444.44;;;7.84;100.00
47530;BME280;33272;51.922;7.730;2023-04-07T01:20:27;144444.44;;;7.84;100.00
47530;BME280;33272;51.922;7.730;2023-04-07T01:23:03;144445.69;;;7.84;100.00
47530;BME280;33272;51.922;7.730;2023-04-07T01:26:03;144436.84;;;7.81;100.00
47530;BME280;33272;51.922;7.730;2023-04-07T01:28:49;144436.84;;;7.81;100.00
47530;BME280;33272;51.922;7.730;2023-04-07T01:31:25;144445.69;;;7.84;100.00
47530;BME280;33272;51.922;7.730;2023-04-07T01:33:54;144449.50;;;7.86;100.00
47530;BME280;33272;51.922;7.730;2023-04-07T01:36:26;144448.25;;;7.85;100.00
47530;BME280;33272;51.922;7.730;2023-04-07T01:38:54;144443.16;;;7.83;100.00
47530;BME280;33272;51.922;7.730;2023-04-07T01:41:22;144445.69;;;7.84;100.00
47530;BME280;33272;51.922;7.730;2023-04-07T01:43:51;144443.16;;;7.83;100.00
47530;BME280;33272;51.922;7.730;2023-04-07T01:46:19;144447.00;;;7.85;100.00
47530;BME280;33272;51.922;7.730;2023-04-07T01:48:48;144452.00;;;7.87;100.00
47530;BME280;33272;51.922;7.730;2023-04-07T01:51:16;144453.28;;;7.87;100.00
47530;BME280;33272;51.922;7.730;2023-04-07T01:53:45;144457.09;;;7.89;100.00
47530;BME280;33272;51.922;7.730;2023-04-07T01:56:12;144457.09;;;7.89;100.00
47530;BME280;33272;51.922;7.730;2023-04-07T01:58:39;144459.59;;;7.90;100.00
47530;BME280;33272;51.922;7.730;2023-04-07T02:01:06;144460.84;;;7.90;100.00
47530;BME280;33272;51.922;7.730;2023-04-07T02:03:44;144459.59;;;7.90;100.00
47530;BME280;33272;51.922;7.730;2023-04-07T02:06:18;144459.59;;;7.90;100.00
47530;BME280;33272;51.922;7.730;2023-04-07T02:08:50;144457.09;;;7.89;100.00
47530;BME280;33272;51.922;7.730;2023-04-07T02:11:20;144455.84;;;7.88;100.00
47530;BME280;33272;51.922;7.730;2023-04-07T02:13:48;144453.28;;;7.87;100.00
47530;BME280;33272;51.922;7.730;2023-04-07T02:16:17;144447.00;;;7.85;100.00
47530;BME280;33272;51.922;7.730;2023-04-07T02:18:45;144449.50;;;7.86;100.00
47530;BME280;33272;51.922;7.730;2023-04-07T02:21:16;144447.00;;;7.85;100.00
47530;BME280;33272;51.922;7.730;2023-04-07T02:23:44;144444.44;;;7.84;100.00
47530;BME280;33272;51.922;7.730;2023-04-07T02:26:12;144443.16;;;7.83;100.00
47530;BME280;33272;51.922;7.730;2023-04-07T02:28:39;144439.41;;;7.82;100.00
47530;BME280;33272;51.922;7.730;2023-04-07T02:31:06;144436.84;;;7.81;100.00
47530;BME280;33272;51.922;7.730;2023-04-07T02:33:33;144445.69;;;7.84;100.00
47530;BME280;33272;51.922;7.730;2023-04-07T02:36:00;144440.66;;;7.82;100.00
47530;BME280;33272;51.922;7.730;2023-04-07T02:38:28;144435.59;;;7.80;100.00
47530;BME280;33272;51.922;7.730;2023-04-07T02:40:55;144429.25;;;7.78;100.00
47530;BME280;33272;51.922;7.730;2023-04-07T02:43:23;144428.00;;;7.77;100.00
47530;BME280;33272;51.922;7.730;2023-04-07T02:45:51;144422.91;;;7.75;100.00
47530;BME280;33272;51.922;7.730;2023-04-07T02:48:18;144416.63;;;7.73;100.00
47530;BME280;33272;51.922;7.730;2023-04-07T02:50:45;144425.47;;;7.76;100.00
47530;BME280;33272;51.922;7.730;2023-04-07T02:53:12;144419.16;;;7.74;100.00
47530;BME280;33272;51.922;7.730;2023-04-07T02:55:41;144424.22;;;7.76;100.00
47530;BME280;33272;51.922;7.730;2023-04-07T02:58:08;144419.16;;;7.74;100.00
47530;BME280;33272;51.922;7.730;2023-04-07T03:00:35;144419.16;;;7.74;100.00
47530;BME280;33272;51.922;7.730;2023-04-07T03:03:01;144421.66;;;7.75;100.00
47530;BME280;33272;51.922;7.730;2023-04-07T03:05:28;144430.50;;;7.78;100.00
47530;BME280;33272;51.922;7.730;2023-04-07T03:07:56;144438.09;;;7.81;100.00
47530;BME280;33272;51.922;7.730;2023-04-07T03:10:23;144438.09;;;7.81;100.00
47530;BME280;33272;51.922;7.730;2023-04-07T03:12:51;144438.09;;;7.81;100.00
47530;BME280;33272;51.922;7.730;2023-04-07T03:15:18;144431.81;;;7.79;100.00
47530;BME280;33272;51.922;7.730;2023-04-07T03:17:45;144434.31;;;7.80;100.00
47530;BME280;33272;51.922;7.730;2023-04-07T03:20:12;144434.31;;;7.80;100.00
47530;BME280;33272;51.922;7.730;2023-04-07T03:22:39;144435.59;;;7.80;100.00
47530;BME280;33272;51.922;7.730;2023-04-07T03:25:06;144436.84;;;7.81;100.00
47530;BME280;33272;51.922;7.730;2023-04-07T03:27:33;144436.84;;;7.81;100.00
47530;BME280;33272;51.922;7.730;2023-04-07T03:30:02;144431.81;;;7.79;100.00
47530;BME280;33272;51.922;7.730;2023-04-07T03:32:30;144430.50;;;7.78;100.00
47530;BME280;33272;51.922;7.730;2023-04-07T03:34:57;144429.25;;;7.78;100.00
47530;BME280;33272;51.922;7.730;2023-04-07T03:37:24;144425.47;;;7.76;100.00
47530;BME280;33272;51.922;7.730;2023-04-07T03:39:51;144426.75;;;7.77;100.00
47530;BME280;33272;51.922;7.730;2023-04-07T03:42:18;144429.25;;;7.78;100.00
47530;BME280;33272;51.922;7.730;2023-04-07T03:44:45;144430.50;;;7.78;100.00
47530;BME280;33272;51.922;7.730;2023-04-07T03:47:13;144429.25;;;7.78;100.00
47530;BME280;33272;51.922;7.730;2023-04-07T03:49:40;144429.25;;;7.78;100.00
47530;BME280;33272;51.922;7.730;2023-04-07T03:52:07;144433.06;;;7.79;100.00
47530;BME280;33272;51.922;7.730;2023-04-07T03:54:34;144431.81;;;7.79;100.00
47530;BME280;33272;51.922;7.730;2023-04-07T03:57:01;144430.50;;;7.78;100.00
47530;BME280;33272;51.922;7.730;2023-04-07T03:59:28;144425.47;;;7.76;100.00
47530;BME280;33272;51.922;7.730;2023-04-07T04:01:55;144431.81;;;7.79;100.00
47530;BME280;33272;51.922;7.730;2023-04-07T04:04:24;144435.59;;;7.80;100.00
47530;BME280;33272;51.922;7.730;2023-04-07T04:06:51;144428.00;;;7.77;100.00
47530;BME280;33272;51.922;7.730;2023-04-07T04:09:18;144429.25;;;7.78;100.00
47530;BME280;33272;51.922;7.730;2023-04-07T04:11:45;144429.25;;;7.78;100.00
47530;BME280;33272;51.922;7.730;2023-04-07T04:14:12;144426.75;;;7.77;100.00
47530;BME280;33272;51.922;7.730;2023-04-07T04:16:39;144422.91;;;7.75;100.00
47530;BME280;33272;51.922;7.730;2023-04-07T04:19:06;144425.47;;;7.76;100.00
47530;BME280;33272;51.922;7.730;2023-04-07T04:21:35;144429.25;;;7.78;100.00
47530;BME280;33272;51.922;7.730;2023-04-07T04:24:02;144434.31;;;7.80;100.00
47530;BME280;33272;51.922;7.730;2023-04-07T04:26:29;144433.06;;;7.79;100.00
47530;BME280;33272;51.922;7.730;2023-04-07T04:28:56;144429.25;;;7.78;100.00
47530;BME280;33272;51.922;7.730;2023-04-07T04:31:23;144428.00;;;7.77;100.00
47530;BME280;33272;51.922;7.730;2023-04-07T04:33:50;144424.22;;;7.76;100.00
47530;BME280;33272;51.922;7.730;2023-04-07T04:36:17;144429.25;;;7.78;100.00
47530;BME280;33272;51.922;7.730;2023-04-07T04:38:45;144431.81;;;7.79;100.00
47530;BME280;33272;51.922;7.730;2023-04-07T04:41:12;144431.81;;;7.79;100.00
47530;BME280;33272;51.922;7.730;2023-04-07T04:43:39;144421.66;;;7.75;100.00
47530;BME280;33272;51.922;7.730;2023-04-07T04:46:06;144416.63;;;7.73;100.00
47530;BME280;33272;51.922;7.730;2023-04-07T04:48:33;144419.16;;;7.74;100.00
47530;BME280;33272;51.922;7.730;2023-04-07T04:51:03;144426.75;;;7.77;100.00
47530;BME280;33272;51.922;7.730;2023-04-07T04:53:30;144430.50;;;7.78;100.00
47530;BME280;33272;51.922;7.730;2023-04-07T04:55:59;144435.59;;;7.80;100.00
47530;BME280;33272;51.922;7.730;2023-04-07T04:58:26;144434.31;;;7.80;100.00
47530;BME280;33272;51.922;7.730;2023-04-07T05:00:53;144436.84;;;7.81;100.00
47530;BME280;33272;51.922;7.730;2023-04-07T05:03:23;144438.09;;;7.81;100.00
47530;BME280;33272;51.922;7.730;2023-04-07T05:05:50;144429.25;;;7.78;100.00
47530;BME280;33272;51.922;7.730;2023-04-07T05:08:17;144428.00;;;7.77;100.00
47530;BME280;33272;51.922;7.730;2023-04-07T05:10:45;144429.25;;;7.78;100.00
47530;BME280;33272;51.922;7.730;2023-04-07T05:13:14;144433.06;;;7.79;100.00
47530;BME280;33272;51.922;7.730;2023-04-07T05:15:41;144440.66;;;7.82;100.00
47530;BME280;33272;51.922;7.730;2023-04-07T05:18:08;144429.25;;;7.78;100.00
47530;BME280;33272;51.922;7.730;2023-04-07T05:20:35;144435.59;;;7.80;100.00
47530;BME280;33272;51.922;7.730;2023-04-07T05:23:02;144444.44;;;7.84;100.00
47530;BME280;33272;51.922;7.730;2023-04-07T05:25:29;144448.25;;;7.85;100.00
47530;BME280;33272;51.922;7.730;2023-04-07T05:27:58;144448.25;;;7.85;100.00
47530;BME280;33272;51.922;7.730;2023-04-07T05:30:26;144448.25;;;7.85;100.00
47530;BME280;33272;51.922;7.730;2023-04-07T05:32:53;144454.53;;;7.88;100.00
47530;BME280;33272;51.922;7.730;2023-04-07T05:35:20;144449.50;;;7.86;100.00
47530;BME280;33272;51.922;7.730;2023-04-07T05:37:47;144449.50;;;7.86;100.00
47530;BME280;33272;51.922;7.730;2023-04-07T05:40:14;144449.50;;;7.86;100.00
47530;BME280;33272;51.922;7.730;2023-04-07T05:42:41;144455.84;;;7.88;100.00
47530;BME280;33272;51.922;7.730;2023-04-07T05:45:09;144459.59;;;7.90;100.00
47530;BME280;33272;51.922;7.730;2023-04-07T05:47:38;144462.13;;;7.91;100.00
47530;BME280;33272;51.922;7.730;2023-04-07T05:50:06;144471.00;;;7.95;100.00
47530;BME280;33272;51.922;7.730;2023-04-07T05:52:33;144472.28;;;7.95;100.00
47530;BME280;33272;51.922;7.730;2023-04-07T05:55:01;144471.00;;;7.95;100.00
47530;BME280;33272;51.922;7.730;2023-04-07T05:57:28;144473.53;;;7.96;100.00
47530;BME280;33272;51.922;7.730;2023-04-07T05:59:55;144477.28;;;7.97;100.00
47530;BME280;33272;51.922;7.730;2023-04-07T06:02:22;144474.78;;;7.96;100.00
47530;BME280;33272;51.922;7.730;2023-04-07T06:04:50;144487.44;;;8.01;100.00
47530;BME280;33272;51.922;7.730;2023-04-07T06:07:17;144488.69;;;8.02;100.00
47530;BME280;33272;51.922;7.730;2023-04-07T06:09:44;144496.28;;;8.05;100.00
47530;BME280;33272;51.922;7.730;2023-04-07T06:12:11;144500.06;;;8.06;100.00
47530;BME280;33272;51.922;7.730;2023-04-07T06:14:39;144507.66;;;8.09;100.00
47530;BME280;33272;51.922;7.730;2023-04-07T06:17:06;144516.50;;;8.13;100.00
47530;BME280;33272;51.922;7.730;2023-04-07T06:19:33;144524.09;;;8.16;100.00
47530;BME280;33272;51.922;7.730;2023-04-07T06:22:02;144531.69;;;8.19;100.00
47530;BME280;33272;51.922;7.730;2023-04-07T06:24:29;144539.28;;;8.22;100.00
47530;BME280;33272;51.922;7.730;2023-04-07T06:26:56;144538.00;;;8.22;100.00
47530;BME280;33272;51.922;7.730;2023-04-07T06:29:23;144540.53;;;8.23;100.00
47530;BME280;33272;51.922;7.730;2023-04-07T06:31:51;144548.13;;;8.26;100.00
47530;BME280;33272;51.922;7.730;2023-04-07T06:34:18;144551.94;;;8.27;100.00
47530;BME280;33272;51.922;7.730;2023-04-07T06:36:45;144562.03;;;8.31;100.00
47530;BME280;33272;51.922;7.730;2023-04-07T06:39:13;144565.88;;;8.33;100.00
47530;BME280;33272;51.922;7.730;2023-04-07T06:41:40;144578.53;;;8.38;100.00
47530;BME280;33272;51.922;7.730;2023-04-07T06:44:09;144589.94;;;8.43;100.00
47530;BME280;33272;51.922;7.730;2023-04-07T06:46:36;144598.78;;;8.46;100.00
47530;BME280;33272;51.922;7.730;2023-04-07T06:49:03;144613.97;;;8.52;100.00
47530;BME280;33272;51.922;7.730;2023-04-07T06:51:30;144631.69;;;8.59;100.00
47530;BME280;33272;51.922;7.730;2023-04-07T06:53:57;144645.59;;;8.65;100.00
47530;BME280;33272;51.922;7.730;2023-04-07T06:56:26;144659.53;;;8.71;100.00
47530;BME280;33272;51.922;7.730;2023-04-07T06:58:53;144667.13;;;8.74;100.00
47530;BME280;33272;51.922;7.730;2023-04-07T07:01:20;144684.84;;;8.81;100.00
47530;BME280;33272;51.922;7.730;2023-04-07T07:03:47;144701.28;;;8.88;100.00
47530;BME280;33272;51.922;7.730;2023-04-07T07:06:14;144706.34;;;8.90;100.00
47530;BME280;33272;51.922;7.730;2023-04-07T07:08:41;144705.09;;;8.89;100.00
47530;BME280;33272;51.922;7.730;2023-04-07T07:11:08;144722.81;;;8.96;100.00
47530;BME280;33272;51.922;7.730;2023-04-07T07:13:36;144735.44;;;9.01;100.00
47530;BME280;33272;51.922;7.730;2023-04-07T07:16:04;144740.50;;;9.03;100.00
47530;BME280;33272;51.922;7.730;2023-04-07T07:18:31;144746.84;;;9.06;100.00
47530;BME280;33272;51.922;7.730;2023-04-07T07:20:58;144754.44;;;9.09;100.00
47530;BME280;33272;51.922;7.730;2023-04-07T07:23:25;144762.06;;;9.12;100.00
47530;BME280;33272;51.922;7.730;2023-04-07T07:25:52;144772.16;;;9.16;100.00
47530;BME280;33272;51.922;7.730;2023-04-07T07:28:19;144781.00;;;9.20;100.00
47530;BME280;33272;51.922;7.730;2023-04-07T07:30:48;144786.09;;;9.22;100.00
47530;BME280;33272;51.922;7.730;2023-04-07T07:33:15;144794.94;;;9.25;100.00
47530;BME280;33272;51.922;7.730;2023-04-07T07:35:42;144807.63;;;9.31;100.00
47530;BME280;33272;51.922;7.730;2023-04-07T07:38:10;144824.09;;;9.37;100.00
47530;BME280;33272;51.922;7.730;2023-04-07T07:40:37;144844.31;;;9.45;100.00
47530;BME280;33272;51.922;7.730;2023-04-07T07:43:04;144860.81;;;9.52;100.00
47530;BME280;33272;51.922;7.730;2023-04-07T07:45:31;144875.97;;;9.58;100.00
47530;BME280;33272;51.922;7.730;2023-04-07T07:48:00;144864.59;;;9.54;100.00
47530;BME280;33272;51.922;7.730;2023-04-07T07:50:27;144849.41;;;9.47;100.00
47530;BME280;33272;51.922;7.730;2023-04-07T07:52:54;144849.41;;;9.47;100.00
47530;BME280;33272;51.922;7.730;2023-04-07T07:55:21;144841.78;;;9.44;100.00
47530;BME280;33272;51.922;7.730;2023-04-07T07:57:48;144841.78;;;9.44;100.00
47530;BME280;33272;51.922;7.730;2023-04-07T08:00:16;144849.41;;;9.47;100.00
47530;BME280;33272;51.922;7.730;2023-04-07T08:02:43;144844.31;;;9.45;100.00
47530;BME280;33272;51.922;7.730;2023-04-07T08:05:11;144836.72;;;9.42;100.00
47530;BME280;33272;51.922;7.730;2023-04-07T08:07:38;144835.47;;;9.42;100.00
47530;BME280;33272;51.922;7.730;2023-04-07T08:10:08;144840.53;;;9.44;100.00
47530;BME280;33272;51.922;7.730;2023-04-07T08:12:35;144850.66;;;9.48;100.00
47530;BME280;33272;51.922;7.730;2023-04-07T08:15:02;144863.34;;;9.53;100.00
47530;BME280;33272;51.922;7.730;2023-04-07T08:17:30;144870.94;;;9.56;100.00
47530;BME280;33272;51.922;7.730;2023-04-07T08:19:56;144877.28;;;9.59;100.00
47530;BME280;33272;51.922;7.730;2023-04-07T08:22:25;144887.38;;;9.63;100.00
47530;BME280;33272;51.922;7.730;2023-04-07T08:24:52;144879.78;;;9.60;100.00
47530;BME280;33272;51.922;7.730;2023-04-07T08:27:19;144888.66;;;9.63;100.00
47530;BME280;33272;51.922;7.730;2023-04-07T08:29:57;144907.69;;;9.71;100.00
47530;BME280;33272;51.922;7.730;2023-04-07T08:32:24;144916.53;;;9.74;100.00
47530;BME280;33272;51.922;7.730;2023-04-07T08:34:54;144922.81;;;9.77;100.00
47530;BME280;33272;51.922;7.730;2023-04-07T08:37:21;144929.16;;;9.80;100.00
47530;BME280;33272;51.922;7.730;2023-04-07T08:39:50;144941.84;;;9.85;100.00
47530;BME280;33272;51.922;7.730;2023-04-07T08:42:18;144954.53;;;9.90;100.00
47530;BME280;33272;51.922;7.730;2023-04-07T08:44:47;144957.06;;;9.91;100.00
47530;BME280;33272;51.922;7.730;2023-04-07T08:47:16;144946.94;;;9.87;100.00
47530;BME280;33272;51.922;7.730;2023-04-07T08:49:44;144941.84;;;9.85;100.00
47530;BME280;33272;51.922;7.730;2023-04-07T08:52:14;144955.78;;;9.90;100.00
47530;BME280;33272;51.922;7.730;2023-04-07T08:54:42;144979.88;;;10.00;100.00
47530;BME280;33272;51.922;7.730;2023-04-07T08:57:11;144984.91;;;10.02;100.00
47530;BME280;33272;51.922;7.730;2023-04-07T08:59:40;144997.59;;;10.07;100.00
47530;BME280;33272;51.922;7.730;2023-04-07T09:02:09;144984.91;;;10.02;100.00
47530;BME280;33272;51.922;7.730;2023-04-07T09:04:36;144989.97;;;10.04;100.00
47530;BME280;33272;51.922;7.730;2023-04-07T09:07:03;144993.81;;;10.06;100.00
47530;BME280;33272;51.922;7.730;2023-04-07T09:09:30;144996.31;;;10.07;100.00
47530;BME280;33272;51.922;7.730;2023-04-07T09:11:57;145005.19;;;10.10;100.00
47530;BME280;33272;51.922;7.730;2023-04-07T09:14:25;145007.72;;;10.11;100.00
47530;BME280;33272;51.922;7.730;2023-04-07T09:16:54;145016.56;;;10.15;100.00
47530;BME280;33272;51.922;7.730;2023-04-07T09:19:23;145010.28;;;10.12;100.00
47530;BME280;33272;51.922;7.730;2023-04-07T09:21:52;144998.84;;;10.08;100.00
47530;BME280;33272;51.922;7.730;2023-04-07T09:24:24;145001.41;;;10.09;100.00
47530;BME280;33272;51.922;7.730;2023-04-07T09:27:08;145008.97;;;10.12;100.00
47530;BME280;33272;51.922;7.730;2023-04-07T09:29:38;145031.78;;;10.21;100.00
47530;BME280;33272;51.922;7.730;2023-04-07T09:32:06;145045.78;;;10.27;100.00
47530;BME280;33272;51.922;7.730;2023-04-07T09:34:35;145057.19;;;10.31;100.00
47530;BME280;33272;51.922;7.730;2023-04-07T09:37:03;145052.13;;;10.29;100.00
47530;BME280;33272;51.922;7.730;2023-04-07T09:39:32;145043.19;;;10.26;100.00
47530;BME280;33272;51.922;7.730;2023-04-07T09:42:05;145034.34;;;10.22;100.00
47530;BME280;33272;51.922;7.730;2023-04-07T09:44:40;145022.91;;;10.17;100.00
47530;BME280;33272;51.922;7.730;2023-04-07T09:47:07;145024.19;;;10.18;100.00
47530;BME280;33272;51.922;7.730;2023-04-07T09:49:48;145026.75;;;10.19;100.00
47530;BME280;33272;51.922;7.730;2023-04-07T09:52:17;145015.31;;;10.14;100.00
47530;BME280;33272;51.922;7.730;2023-04-07T09:54:45;145016.56;;;10.15;100.00
47530;BME280;33272;51.922;7.730;2023-04-07T09:57:13;145014.06;;;10.14;100.00
47530;BME280;33272;51.922;7.730;2023-04-07T09:59:44;145026.75;;;10.19;100.00
47530;BME280;33272;51.922;7.730;2023-04-07T10:02:11;145021.66;;;10.17;100.00
47530;BME280;33272;51.922;7.730;2023-04-07T10:04:39;144988.72;;;10.04;100.00
47530;BME280;33272;51.922;7.730;2023-04-07T10:07:07;144974.78;;;9.98;100.00
47530;BME280;33272;51.922;7.730;2023-04-07T10:09:34;144982.38;;;10.01;100.00
47530;BME280;33272;51.922;7.730;2023-04-07T10:12:01;144996.31;;;10.07;100.00
47530;BME280;33272;51.922;7.730;2023-04-07T10:14:31;145031.78;;;10.21;100.00
47530;BME280;33272;51.922;7.730;2023-04-07T10:17:00;145069.84;;;10.36;100.00
47530;BME280;33272;51.922;7.730;2023-04-07T10:19:31;145096.50;;;10.47;100.00
47530;BME280;33272;51.922;7.730;2023-04-07T10:21:59;145116.72;;;10.55;100.00
47530;BME280;33272;51.922;7.730;2023-04-07T10:24:43;145102.78;;;10.50;100.00
47530;BME280;33272;51.922;7.730;2023-04-07T10:27:16;145087.63;;;10.43;100.00
47530;BME280;33272;51.922;7.730;2023-04-07T10:29:49;145078.72;;;10.40;100.00
47530;BME280;33272;51.922;7.730;2023-04-07T10:32:18;145076.19;;;10.39;100.00
47530;BME280;33272;51.922;7.730;2023-04-07T10:34:58;145091.41;;;10.45;100.00
47530;BME280;33272;51.922;7.730;2023-04-07T10:37:26;145130.69;;;10.61;100.00
47530;BME280;33272;51.922;7.730;2023-04-07T10:40:28;145163.63;;;10.74;100.00
47530;BME280;33272;51.922;7.730;2023-04-07T10:42:55;145206.75;;;10.92;100.00
47530;BME280;33272;51.922;7.730;2023-04-07T10:45:52;145237.19;;;11.04;100.00
47530;BME280;33272;51.922;7.730;2023-04-07T10:48:22;145271.41;;;11.18;100.00
47530;BME280;33272;51.922;7.730;2023-04-07T10:51:14;145285.38;;;11.23;100.00
47530;BME280;33272;51.922;7.730;2023-04-07T10:54:19;145275.22;;;11.19;100.00
47530;BME280;33272;51.922;7.730;2023-04-07T10:57:11;145300.59;;;11.29;100.00
47530;BME280;33272;51.922;7.730;2023-04-07T10:59:42;145348.78;;;11.49;100.00
47530;BME280;33272;51.922;7.730;2023-04-07T11:02:32;145367.78;;;11.56;100.00
47530;BME280;33272;51.922;7.730;2023-04-07T11:05:02;145377.97;;;11.60;100.00
47530;BME280;33272;51.922;7.730;2023-04-07T11:07:51;145391.88;;;11.66;100.00
47530;BME280;33272;51.922;7.730;2023-04-07T11:10:20;145435.03;;;11.83;100.00
47530;BME280;33272;51.922;7.730;2023-04-07T11:13:02;145459.19;;;11.93;100.00
47530;BME280;33272;51.922;7.730;2023-04-07T11:15:30;145475.69;;;12.00;100.00
47530;BME280;33272;51.922;7.730;2023-04-07T11:18:16;145494.75;;;12.08;100.00
47530;BME280;33272;51.922;7.730;2023-04-07T11:20:47;145484.56;;;12.03;100.00
47530;BME280;33272;51.922;7.730;2023-04-07T11:23:16;145464.28;;;11.95;100.00
47530;BME280;33272;51.922;7.730;2023-04-07T11:25:45;145424.91;;;11.79;100.00
47530;BME280;33272;51.922;7.730;2023-04-07T11:28:13;145394.44;;;11.67;100.00
47530;BME280;33272;51.922;7.730;2023-04-07T11:30:47;145367.78;;;11.56;100.00
47530;BME280;33272;51.922;7.730;2023-04-07T11:33:20;145358.91;;;11.53;100.00
47530;BME280;33272;51.922;7.730;2023-04-07T11:35:55;145351.28;;;11.50;100.00
47530;BME280;33272;51.922;7.730;2023-04-07T11:38:24;145348.78;;;11.49;100.00
47530;BME280;33272;51.922;7.730;2023-04-07T11:40:53;145338.63;;;11.45;100.00
47530;BME280;33272;51.922;7.730;2023-04-07T11:43:22;145323.41;;;11.39;100.00
47530;BME280;33272;51.922;7.730;2023-04-07T11:46:07;145306.94;;;11.32;100.00
47530;BME280;33272;51.922;7.730;2023-04-07T11:48:36;145304.38;;;11.31;100.00
47530;BME280;33272;51.922;7.730;2023-04-07T11:51:05;145320.84;;;11.37;100.00
47530;BME280;33272;51.922;7.730;2023-04-07T11:53:34;145343.69;;;11.47;100.00
47530;BME280;33272;51.922;7.730;2023-04-07T11:56:05;145355.13;;;11.51;100.00
47530;BME280;33272;51.922;7.730;2023-04-07T11:58:34;145355.13;;;11.51;100.00
47530;BME280;33272;51.922;7.730;2023-04-07T12:01:04;145346.25;;;11.48;100.00
47530;BME280;33272;51.922;7.730;2023-04-07T12:03:35;145344.94;;;11.47;100.00
47530;BME280;33272;51.922;7.730;2023-04-07T12:06:04;145364.00;;;11.55;100.00
47530;BME280;33272;51.922;7.730;2023-04-07T12:08:39;145379.22;;;11.61;100.00
47530;BME280;33272;51.922;7.730;2023-04-07T12:11:07;145399.50;;;11.69;100.00
47530;BME280;33272;51.922;7.730;2023-04-07T12:13:35;145412.19;;;11.74;100.00
47530;BME280;33272;51.922;7.730;2023-04-07T12:16:02;145416.03;;;11.76;100.00
47530;BME280;33272;51.922;7.730;2023-04-07T12:18:29;145412.19;;;11.74;100.00
47530;BME280;33272;51.922;7.730;2023-04-07T12:20:56;145414.72;;;11.75;100.00
47530;BME280;33272;51.922;7.730;2023-04-07T12:23:25;145412.19;;;11.74;100.00
47530;BME280;33272;51.922;7.730;2023-04-07T12:25:52;145394.44;;;11.67;100.00
47530;BME280;33272;51.922;7.730;2023-04-07T12:28:19;145377.97;;;11.60;100.00
47530;BME280;33272;51.922;7.730;2023-04-07T12:30:46;145394.44;;;11.67;100.00
47530;BME280;33272;51.922;7.730;2023-04-07T12:33:13;145409.69;;;11.73;100.00
47530;BME280;33272;51.922;7.730;2023-04-07T12:35:41;145418.56;;;11.77;100.00
47530;BME280;33272;51.922;7.730;2023-04-07T12:38:07;145416.03;;;11.76;100.00
47530;BME280;33272;51.922;7.730;2023-04-07T12:40:36;145414.72;;;11.75;100.00
47530;BME280;33272;51.922;7.730;2023-04-07T12:43:03;145414.72;;;11.75;100.00
47530;BME280;33272;51.922;7.730;2023-04-07T12:45:30;145428.69;;;11.81;100.00
47530;BME280;33272;51.922;7.730;2023-04-07T12:47:58;145455.41;;;11.92;100.00
47530;BME280;33272;51.922;7.730;2023-04-07T12:50:25;145473.16;;;11.99;100.00
47530;BME280;33272;51.922;7.730;2023-04-07T12:52:54;145484.56;;;12.03;100.00
47530;BME280;33272;51.922;7.730;2023-04-07T12:55:23;145483.28;;;12.03;100.00
47530;BME280;33272;51.922;7.730;2023-04-07T12:57:52;145489.66;;;12.05;100.00